KGTU

Georgetown Municipal Airport

Georgetown, Texas, USA
METAR KGTU 140356Z AUTO 30005KT 10SM CLR M01/M06 A3054 RMK AO2 SLP353 T10061056 FZRANO
Observed Flight Rules
Nov-14 @ 03:56 UTC (53 minutes ago) Visual Flight Rules
Wind Visibility Clouds
300° at 5 knots 10 miles
  • Clear skies
Temperatures Readings
Current -1°C / 30°F
Dewpoint -6°C / 21°F
Humidity 69%
Altimeter 30.54" Hg
Pressure 1035.3 hPa
Elevation 240
METAR KGTU 140356Z AUTO 30005KT 10SM CLR M01/M06 A3054 RMK AO2 SLP353 T10061056 FZRANO
Observed Flight Rules
Nov-14 @ 03:56 UTC
(53 minutes ago)
VFR
Wind Visibility
300° at 5 knots 10 miles
Clouds
  • Clear skies
Temperature Dewpoint
-1°C / 30°F -6°C / 21°F
Humidity Altimeter Pressure
69% 30.54" Hg 1035.3 hPa